Speegleville, Texas
Current Conditions -  °F | °C
As of 3:23 PM on Saturday 22 Nov 2014 (Local Time) from KACT Reporting Station
Thunderstorm Thunderstorm  
Wind Chill: 62°   Ceiling: 4400
Heat Index: 62°   Visibility: 2.5mi
Dew Point: 61°   Wind: 10mph
Humidity: 96%   Direction: 90°E
Pressure: 29.87"   Gusts: NA
Location:  31.5356°N, 97.1921°W
Report Text: KACT 222123Z 09009KT 2 1/2SM +TSRA BR SCT010 BKN044 OVC065 17/16 A2987 RMK AO2 LTG DSNT S AND SW TSB2055 P0013 T01670161
Loading
Personal Weather Stations






























Interactive Weather Map New forecast layout! Learn more

10-Day Weather Forecast

Advertisements
Track Severe Weather on mobile